createdAt,value
2023-03-08T00:00:46.389Z,9.20
2023-03-08T00:01:41.702Z,7.70
2023-03-08T00:02:36.973Z,8.20
2023-03-08T00:03:32.170Z,8.40
2023-03-08T00:04:27.512Z,8.50
2023-03-08T00:05:22.590Z,8.50
2023-03-08T00:06:17.712Z,8.30
2023-03-08T00:07:13.143Z,7.00
2023-03-08T00:08:08.144Z,8.70
2023-03-08T00:09:03.448Z,8.00
2023-03-08T00:09:58.648Z,8.80
2023-03-08T00:10:53.511Z,9.70
2023-03-08T00:11:48.536Z,7.10
2023-03-08T00:13:16.361Z,9.30
2023-03-08T00:14:11.565Z,7.50
2023-03-08T00:15:06.453Z,9.10
2023-03-08T00:16:01.497Z,8.80
2023-03-08T00:16:56.612Z,7.70
2023-03-08T00:17:51.699Z,8.60
2023-03-08T00:18:47.012Z,8.00
2023-03-08T00:19:42.286Z,6.80
2023-03-08T00:20:37.296Z,8.90
2023-03-08T00:21:32.436Z,7.30
2023-03-08T00:22:27.757Z,10.80
2023-03-08T00:23:23.049Z,7.40
2023-03-08T00:24:18.395Z,8.70
2023-03-08T00:25:13.379Z,7.40
2023-03-08T00:26:08.521Z,7.50
2023-03-08T00:27:03.653Z,8.30
2023-03-08T00:27:58.923Z,8.40
2023-03-08T00:28:54.374Z,10.10
2023-03-08T00:29:49.550Z,10.50
2023-03-08T00:30:44.732Z,8.00
2023-03-08T00:31:39.979Z,6.80
2023-03-08T00:32:35.183Z,7.60
2023-03-08T00:33:30.344Z,11.70
2023-03-08T00:34:25.604Z,10.20
2023-03-08T00:35:20.692Z,7.90
2023-03-08T00:36:15.883Z,8.50
2023-03-08T00:37:11.273Z,9.70
2023-03-08T00:38:06.290Z,12.30
2023-03-08T00:39:01.564Z,11.20
2023-03-08T00:39:56.711Z,8.20
2023-03-08T00:40:51.996Z,9.30
2023-03-08T00:41:47.192Z,11.00
2023-03-08T00:42:42.402Z,10.60
2023-03-08T00:43:37.726Z,10.10
2023-03-08T00:44:32.961Z,7.50
2023-03-08T00:45:27.967Z,9.60
2023-03-08T00:46:23.257Z,11.10
2023-03-08T00:47:18.428Z,8.60
2023-03-08T00:48:13.703Z,8.10
2023-03-08T00:49:08.827Z,9.80
2023-03-08T00:50:03.940Z,11.60
2023-03-08T00:50:59.056Z,8.50
2023-03-08T00:51:54.160Z,12.20
2023-03-08T00:52:49.277Z,11.70
2023-03-08T00:53:44.789Z,9.50
2023-03-08T00:54:39.752Z,12.00
2023-03-08T00:55:35.152Z,10.40
2023-03-08T00:56:30.149Z,11.40
2023-03-08T00:57:25.455Z,10.50
2023-03-08T00:58:20.596Z,10.00
2023-03-08T00:59:16.019Z,9.20
2023-03-08T01:00:10.997Z,12.80
2023-03-08T01:01:06.214Z,11.00
2023-03-08T01:02:01.313Z,9.80
2023-03-08T01:02:56.569Z,12.10
2023-03-08T01:03:51.883Z,12.80
2023-03-08T01:04:46.933Z,9.60
2023-03-08T01:05:42.000Z,9.70
2023-03-08T01:06:37.127Z,10.60
2023-03-08T01:07:32.273Z,11.90
2023-03-08T01:08:27.454Z,10.90
2023-03-08T01:09:22.578Z,8.90
2023-03-08T01:10:17.667Z,9.90
2023-03-08T01:11:12.729Z,9.70
2023-03-08T01:12:07.867Z,10.50
2023-03-08T01:13:02.960Z,9.20
2023-03-08T01:13:58.326Z,9.40
2023-03-08T01:14:53.318Z,11.30
2023-03-08T01:15:48.592Z,10.00
2023-03-08T01:16:43.721Z,10.20
2023-03-08T01:17:38.932Z,10.70
2023-03-08T01:18:33.997Z,7.80
2023-03-08T01:19:29.200Z,11.40
2023-03-08T01:20:24.338Z,11.60
2023-03-08T01:21:19.498Z,7.90
2023-03-08T01:22:14.596Z,8.80
2023-03-08T01:23:09.805Z,9.90
2023-03-08T01:24:05.213Z,10.70
2023-03-08T01:25:00.112Z,11.40
2023-03-08T01:25:55.242Z,10.80
2023-03-08T01:26:50.412Z,11.50
2023-03-08T01:27:45.512Z,8.40
2023-03-08T01:28:40.935Z,12.00
2023-03-08T01:29:35.921Z,9.40
2023-03-08T01:30:31.195Z,13.80
2023-03-08T01:31:26.308Z,10.00
2023-03-08T01:32:21.566Z,10.20
2023-03-08T01:33:16.812Z,8.70
2023-03-08T01:34:11.883Z,9.50
2023-03-08T01:35:07.097Z,12.00
2023-03-08T01:36:02.297Z,11.00
2023-03-08T01:36:57.560Z,10.80
2023-03-08T01:37:52.683Z,10.90
2023-03-08T01:38:48.119Z,10.10
2023-03-08T01:39:43.004Z,12.20
2023-03-08T01:40:38.094Z,8.80
2023-03-08T01:41:33.441Z,8.60
2023-03-08T01:42:28.544Z,12.00
2023-03-08T01:43:23.825Z,7.50
2023-03-08T01:44:19.045Z,11.00
2023-03-08T01:45:14.076Z,10.10
2023-03-08T01:46:09.322Z,12.00
2023-03-08T01:47:04.462Z,12.10
2023-03-08T01:47:59.444Z,13.10
2023-03-08T01:48:54.828Z,8.70
2023-03-08T01:49:49.773Z,7.20
2023-03-08T01:50:45.003Z,10.90
2023-03-08T01:51:40.142Z,13.00
2023-03-08T01:52:35.326Z,10.50
2023-03-08T01:53:30.633Z,8.00
2023-03-08T01:54:25.608Z,10.50
2023-03-08T01:55:20.589Z,13.10
2023-03-08T01:56:15.918Z,10.00
2023-03-08T01:57:11.021Z,10.00
2023-03-08T01:58:06.223Z,10.70
2023-03-08T01:59:01.541Z,10.80
2023-03-08T01:59:56.654Z,9.70
2023-03-08T02:00:51.743Z,11.70
2023-03-08T02:01:46.940Z,10.90
2023-03-08T02:02:42.222Z,11.40
2023-03-08T02:03:37.340Z,9.70
2023-03-08T02:04:32.587Z,11.80
2023-03-08T02:05:27.491Z,14.40
2023-03-08T02:06:22.607Z,13.40
2023-03-08T02:07:17.860Z,10.40
2023-03-08T02:08:12.940Z,9.40
2023-03-08T02:09:08.109Z,12.90
2023-03-08T02:10:03.248Z,11.30
2023-03-08T02:10:58.514Z,10.20
2023-03-08T02:11:53.572Z,9.50
2023-03-08T02:12:48.761Z,12.10
2023-03-08T02:13:43.810Z,10.20
2023-03-08T02:14:39.230Z,10.30
2023-03-08T02:15:34.374Z,10.40
2023-03-08T02:16:29.372Z,12.70
2023-03-08T02:17:24.556Z,10.40
2023-03-08T02:18:19.661Z,9.20
2023-03-08T02:19:14.889Z,9.40
2023-03-08T02:20:10.009Z,10.50
2023-03-08T02:21:05.269Z,9.60
2023-03-08T02:22:00.358Z,9.10
2023-03-08T02:22:55.490Z,10.40
2023-03-08T02:23:50.607Z,13.80
2023-03-08T02:24:46.008Z,8.90
2023-03-08T02:25:40.973Z,10.40
2023-03-08T02:26:36.105Z,10.40
2023-03-08T02:27:31.376Z,10.90
2023-03-08T02:28:26.511Z,10.10
2023-03-08T02:29:21.806Z,12.10
2023-03-08T02:30:16.778Z,9.90
2023-03-08T02:31:11.974Z,9.40
2023-03-08T02:32:07.268Z,9.70
2023-03-08T02:33:02.404Z,11.10
2023-03-08T02:33:57.577Z,9.30
2023-03-08T02:34:52.767Z,10.50
2023-03-08T02:35:47.976Z,9.70
2023-03-08T02:36:43.230Z,10.30
2023-03-08T02:37:38.242Z,10.60
2023-03-08T02:38:33.470Z,11.50
2023-03-08T02:39:28.761Z,13.70
2023-03-08T02:40:23.893Z,9.10
2023-03-08T02:41:19.021Z,11.20
2023-03-08T02:42:14.094Z,9.30
2023-03-08T02:43:09.243Z,13.80
2023-03-08T02:44:04.547Z,12.50
2023-03-08T02:44:59.665Z,12.60
2023-03-08T02:45:54.795Z,10.10
2023-03-08T02:46:49.926Z,10.50
2023-03-08T02:47:44.995Z,8.10
2023-03-08T02:48:40.432Z,12.60
2023-03-08T02:49:35.426Z,12.90
2023-03-08T02:50:30.599Z,14.30
2023-03-08T02:51:25.718Z,8.80
2023-03-08T02:52:20.941Z,12.90
2023-03-08T02:53:16.090Z,12.60
2023-03-08T02:54:11.526Z,11.70
2023-03-08T02:55:06.640Z,13.40
2023-03-08T02:56:01.920Z,11.70
2023-03-08T02:56:57.081Z,10.50
2023-03-08T02:57:52.135Z,12.10
2023-03-08T02:58:47.264Z,10.70
2023-03-08T02:59:42.516Z,10.40
2023-03-08T03:00:37.519Z,12.60
2023-03-08T03:01:32.872Z,13.70
2023-03-08T03:02:28.051Z,12.80
2023-03-08T03:03:23.179Z,9.70
2023-03-08T03:04:18.301Z,14.90
2023-03-08T03:06:39.514Z,10.80
2023-03-08T03:07:32.638Z,11.20
2023-03-08T03:08:28.085Z,13.30
2023-03-08T03:09:23.063Z,11.60
2023-03-08T03:10:18.350Z,11.90
2023-03-08T03:11:13.563Z,11.00
2023-03-08T03:12:08.593Z,11.10
2023-03-08T03:13:03.726Z,11.60
2023-03-08T03:13:59.296Z,11.10
2023-03-08T03:14:54.300Z,13.00
2023-03-08T03:15:49.473Z,13.00
2023-03-08T03:16:44.715Z,16.80
2023-03-08T03:17:39.884Z,13.10
2023-03-08T03:18:35.024Z,11.40
2023-03-08T03:19:30.173Z,11.60
2023-03-08T03:20:25.322Z,11.10
2023-03-08T03:21:20.530Z,9.30
2023-03-08T03:22:15.649Z,10.60
2023-03-08T03:23:11.060Z,11.60
2023-03-08T03:24:06.056Z,12.80
2023-03-08T03:25:01.217Z,12.30
2023-03-08T03:25:56.339Z,13.20
2023-03-08T03:26:51.738Z,13.60
2023-03-08T03:27:46.762Z,11.70
2023-03-08T03:28:42.190Z,14.50
2023-03-08T03:29:37.188Z,14.00
2023-03-08T03:30:32.465Z,12.40
2023-03-08T03:31:27.644Z,12.80
2023-03-08T03:32:23.001Z,11.10
2023-03-08T03:33:18.110Z,9.60
2023-03-08T03:34:13.093Z,13.30
2023-03-08T03:35:08.239Z,10.90
2023-03-08T03:36:03.442Z,12.80
2023-03-08T03:36:58.736Z,11.20
2023-03-08T03:37:53.764Z,10.80
2023-03-08T03:38:49.065Z,14.00
2023-03-08T03:39:44.098Z,13.90
2023-03-08T03:40:39.158Z,9.80
2023-03-08T03:41:34.429Z,10.10
2023-03-08T03:42:29.601Z,14.50
2023-03-08T03:43:25.036Z,12.50
2023-03-08T03:44:19.877Z,13.10
2023-03-08T03:45:15.048Z,12.00
2023-03-08T03:46:10.210Z,10.50
2023-03-08T03:47:05.477Z,13.20
2023-03-08T03:48:00.533Z,11.00
2023-03-08T03:48:55.656Z,12.40
2023-03-08T03:49:50.827Z,12.90
2023-03-08T03:50:46.106Z,15.90
2023-03-08T03:51:41.213Z,12.00
2023-03-08T03:52:36.400Z,16.40
2023-03-08T03:53:31.685Z,11.50
2023-03-08T03:54:26.694Z,11.40
2023-03-08T03:55:21.849Z,12.90
2023-03-08T03:56:17.119Z,12.10
2023-03-08T03:57:12.408Z,11.30
2023-03-08T03:58:07.709Z,11.80
2023-03-08T03:59:02.714Z,13.00
2023-03-08T03:59:57.904Z,11.60
2023-03-08T04:00:53.034Z,13.50
2023-03-08T04:01:48.187Z,15.80
2023-03-08T04:02:43.526Z,13.40
2023-03-08T04:03:38.538Z,13.30
2023-03-08T04:04:33.682Z,11.60
2023-03-08T04:05:28.860Z,14.10
2023-03-08T04:06:26.314Z,14.00
2023-03-08T04:07:21.610Z,11.20
2023-03-08T04:08:16.764Z,16.10
2023-03-08T04:09:11.904Z,17.00
2023-03-08T04:10:07.046Z,10.20
2023-03-08T04:11:02.194Z,11.70
2023-03-08T04:11:57.334Z,11.60
2023-03-08T04:12:52.919Z,12.10
2023-03-08T04:13:47.825Z,13.50
2023-03-08T04:14:42.991Z,14.40
2023-03-08T04:15:38.162Z,12.60
2023-03-08T04:16:33.487Z,13.80
2023-03-08T04:17:28.772Z,13.70
2023-03-08T04:18:23.797Z,14.90
2023-03-08T04:19:19.057Z,11.20
2023-03-08T04:20:14.279Z,15.10
2023-03-08T04:21:09.472Z,14.00
2023-03-08T04:22:04.608Z,14.10
2023-03-08T04:23:00.053Z,18.10
2023-03-08T04:23:55.078Z,12.60
2023-03-08T04:24:50.352Z,14.00
2023-03-08T04:25:45.520Z,14.50
2023-03-08T04:26:40.837Z,13.00
2023-03-08T04:27:35.976Z,14.20
2023-03-08T04:28:31.150Z,13.20
2023-03-08T04:29:26.277Z,13.80
2023-03-08T04:30:21.458Z,13.10
2023-03-08T04:31:16.651Z,18.20
2023-03-08T04:32:11.820Z,14.80
2023-03-08T04:33:07.149Z,13.90
2023-03-08T04:34:02.165Z,14.80
2023-03-08T04:34:57.301Z,15.00
2023-03-08T04:35:52.518Z,17.50
2023-03-08T04:36:47.809Z,18.10
2023-03-08T04:37:43.223Z,17.80
2023-03-08T04:38:38.135Z,13.30
2023-03-08T04:39:33.159Z,16.60
2023-03-08T04:40:28.182Z,12.10
2023-03-08T04:41:23.190Z,15.60
2023-03-08T04:42:18.207Z,12.90
2023-03-08T04:43:13.274Z,12.90
2023-03-08T04:44:08.259Z,15.70
2023-03-08T04:45:03.310Z,15.60
2023-03-08T04:45:58.321Z,13.60
2023-03-08T04:46:53.451Z,15.90
2023-03-08T04:47:48.555Z,12.70
2023-03-08T04:48:43.440Z,16.40
2023-03-08T04:49:38.484Z,15.10
2023-03-08T04:50:33.513Z,16.50
2023-03-08T04:51:28.548Z,16.90
2023-03-08T04:52:23.721Z,12.60
2023-03-08T04:53:18.599Z,13.10
2023-03-08T04:54:13.620Z,19.50
2023-03-08T04:55:08.666Z,14.20
2023-03-08T04:56:03.858Z,17.90
2023-03-08T04:56:59.022Z,11.50
2023-03-08T04:57:54.176Z,13.30
2023-03-08T04:58:49.356Z,14.20
2023-03-08T04:59:44.556Z,16.00
2023-03-08T05:00:39.683Z,14.20
2023-03-08T05:01:35.116Z,12.00
2023-03-08T05:02:31.943Z,15.70
2023-03-08T05:03:25.417Z,18.10
2023-03-08T05:04:20.580Z,16.00
2023-03-08T05:05:15.930Z,14.20
2023-03-08T05:06:11.269Z,14.60
2023-03-08T05:07:06.344Z,14.90
2023-03-08T05:08:01.466Z,12.70
2023-03-08T05:08:56.656Z,15.60
2023-03-08T05:09:51.976Z,12.50
2023-03-08T05:10:47.253Z,12.90
2023-03-08T05:11:42.620Z,12.70
2023-03-08T05:12:37.645Z,16.70
2023-03-08T05:13:32.802Z,16.20
2023-03-08T05:14:28.140Z,12.60
2023-03-08T05:15:23.286Z,15.40
2023-03-08T05:16:18.515Z,16.90
2023-03-08T05:17:13.650Z,14.60
2023-03-08T05:18:08.966Z,18.10
2023-03-08T05:19:04.005Z,17.50
2023-03-08T05:19:59.169Z,17.00
2023-03-08T05:20:54.349Z,17.30
2023-03-08T05:21:49.569Z,16.40
2023-03-08T05:22:58.298Z,13.90
2023-03-08T05:23:40.935Z,18.90
2023-03-08T05:24:35.136Z,16.50
2023-03-08T05:25:30.317Z,12.80
2023-03-08T05:26:25.637Z,16.30
2023-03-08T05:27:20.946Z,14.70
2023-03-08T05:28:16.167Z,14.20
2023-03-08T05:29:11.332Z,16.10
2023-03-08T05:30:06.495Z,13.30
2023-03-08T05:31:01.795Z,19.10
2023-03-08T05:31:57.164Z,14.20
2023-03-08T05:32:52.268Z,14.30
2023-03-08T05:33:47.383Z,18.80
2023-03-08T05:34:42.859Z,18.60
2023-03-08T05:35:38.001Z,16.90
2023-03-08T05:36:33.248Z,18.50
2023-03-08T05:37:28.469Z,15.90
2023-03-08T05:38:23.701Z,18.00
2023-03-08T05:39:19.033Z,14.90
2023-03-08T05:40:14.155Z,16.90
2023-03-08T05:41:09.359Z,16.90
2023-03-08T05:42:04.606Z,18.00
2023-03-08T05:42:59.974Z,17.00
2023-03-08T05:43:57.507Z,22.00
2023-03-08T05:44:52.615Z,16.30
2023-03-08T05:45:47.989Z,12.80
2023-03-08T05:46:43.286Z,16.50
2023-03-08T05:47:38.506Z,15.30
2023-03-08T05:48:33.599Z,14.30
2023-03-08T05:49:28.720Z,15.70
2023-03-08T05:50:23.772Z,18.10
2023-03-08T05:51:19.047Z,14.60
2023-03-08T05:52:18.201Z,14.10
2023-03-08T05:53:13.548Z,14.70
2023-03-08T05:54:08.741Z,21.60
2023-03-08T05:55:03.982Z,18.30
2023-03-08T05:55:59.179Z,17.40
2023-03-08T05:56:55.289Z,16.00
2023-03-08T05:57:50.437Z,13.90
2023-03-08T05:58:47.984Z,13.10
2023-03-08T05:59:41.495Z,16.40
2023-03-08T06:00:36.781Z,17.50
2023-03-08T06:01:32.648Z,14.10
2023-03-08T06:02:27.827Z,22.10
2023-03-08T06:03:23.297Z,17.20
2023-03-08T06:04:19.104Z,18.80
2023-03-08T06:05:14.432Z,19.40
2023-03-08T06:06:09.912Z,15.90
2023-03-08T06:07:06.230Z,16.20
2023-03-08T06:08:01.449Z,18.80
2023-03-08T06:08:57.252Z,17.70
2023-03-08T06:09:52.576Z,15.90
2023-03-08T06:10:48.035Z,16.60
2023-03-08T06:11:43.842Z,17.30
2023-03-08T06:12:39.027Z,16.70
2023-03-08T06:13:34.805Z,17.10
2023-03-08T06:14:30.122Z,17.30
2023-03-08T06:15:25.667Z,16.40
2023-03-08T06:16:21.509Z,20.10
2023-03-08T06:17:16.692Z,19.10
2023-03-08T06:18:12.028Z,17.10
2023-03-08T06:19:08.351Z,14.60
2023-03-08T06:20:03.733Z,16.80
2023-03-08T06:20:59.497Z,18.20
2023-03-08T06:21:54.835Z,18.90
2023-03-08T06:22:50.205Z,17.40
2023-03-08T06:23:45.969Z,16.40
2023-03-08T06:24:41.360Z,20.50
2023-03-08T06:25:37.108Z,19.40
2023-03-08T06:26:32.661Z,20.10
2023-03-08T06:27:27.761Z,14.60
2023-03-08T06:28:23.527Z,15.40
2023-03-08T06:29:18.888Z,18.80
2023-03-08T06:30:14.262Z,25.50
2023-03-08T06:31:11.003Z,16.80
2023-03-08T06:32:06.133Z,22.10
2023-03-08T06:33:01.915Z,17.70
2023-03-08T06:33:57.278Z,14.00
2023-03-08T06:34:52.607Z,20.80
2023-03-08T06:35:48.551Z,17.40
2023-03-08T06:36:43.918Z,18.00
2023-03-08T06:37:39.832Z,18.40
2023-03-08T06:38:35.107Z,20.10
2023-03-08T06:39:30.531Z,16.80
2023-03-08T06:40:26.241Z,16.70
2023-03-08T06:41:21.685Z,21.00
2023-03-08T06:42:17.093Z,20.20
2023-03-08T06:43:13.473Z,20.00
2023-03-08T06:44:08.875Z,18.10
2023-03-08T06:45:04.834Z,17.30
2023-03-08T06:46:00.442Z,19.00
2023-03-08T06:46:55.611Z,18.40
2023-03-08T06:47:51.439Z,24.10
2023-03-08T06:48:46.855Z,17.50
2023-03-08T06:49:42.663Z,17.30
2023-03-08T06:50:37.980Z,17.50
2023-03-08T06:51:33.528Z,19.50
2023-03-08T06:52:29.148Z,24.30
2023-03-08T06:53:24.525Z,21.30
2023-03-08T06:54:20.046Z,24.00
2023-03-08T06:55:16.166Z,19.40
2023-03-08T06:56:11.726Z,15.50
2023-03-08T06:57:07.134Z,18.20
2023-03-08T06:58:02.416Z,17.50
2023-03-08T06:58:58.254Z,19.60
2023-03-08T06:59:53.804Z,16.00
2023-03-08T07:00:49.284Z,17.90
2023-03-08T07:01:45.665Z,18.80
2023-03-08T07:02:41.146Z,23.60
2023-03-08T07:03:36.886Z,20.30
2023-03-08T07:04:32.337Z,15.30
2023-03-08T07:05:27.836Z,20.70
2023-03-08T07:06:23.904Z,22.50
2023-03-08T07:07:19.300Z,22.30
2023-03-08T07:08:14.919Z,20.20
2023-03-08T07:09:10.388Z,17.90
2023-03-08T07:10:05.812Z,23.20
2023-03-08T07:11:02.047Z,21.20
2023-03-08T07:11:57.207Z,20.70
2023-03-08T07:12:52.681Z,25.00
2023-03-08T07:13:48.974Z,23.90
2023-03-08T07:14:44.399Z,22.10
2023-03-08T07:15:40.082Z,20.50
2023-03-08T07:16:35.443Z,21.60
2023-03-08T07:17:30.873Z,19.00
2023-03-08T07:18:26.359Z,21.30
2023-03-08T07:19:22.359Z,22.50
2023-03-08T07:20:18.011Z,18.90
2023-03-08T07:21:13.292Z,23.40
2023-03-08T07:22:08.891Z,22.90
2023-03-08T07:23:03.921Z,20.70
2023-03-08T07:23:59.007Z,21.50
2023-03-08T07:24:53.937Z,19.30
2023-03-08T07:25:49.158Z,28.40
2023-03-08T07:26:43.947Z,27.00
2023-03-08T07:27:41.825Z,21.60
2023-03-08T07:28:36.916Z,23.20
2023-03-08T07:29:32.211Z,21.40
2023-03-08T07:30:27.452Z,15.80
2023-03-08T07:31:22.373Z,17.80
2023-03-08T07:32:17.532Z,24.40
2023-03-08T07:33:12.502Z,20.00
2023-03-08T07:34:07.474Z,19.00
2023-03-08T07:35:02.524Z,21.30
2023-03-08T07:35:57.795Z,19.80
2023-03-08T07:36:52.986Z,21.20
2023-03-08T07:37:48.444Z,20.30
2023-03-08T07:38:44.297Z,21.10
2023-03-08T07:39:39.758Z,23.50
2023-03-08T07:40:35.397Z,18.40
2023-03-08T07:41:30.928Z,18.60
2023-03-08T07:42:26.370Z,23.50
2023-03-08T07:43:22.190Z,20.20
2023-03-08T07:44:17.535Z,19.80
2023-03-08T07:45:12.992Z,20.20
2023-03-08T07:46:08.943Z,19.10
2023-03-08T07:47:04.114Z,18.90
2023-03-08T07:47:59.596Z,20.40
2023-03-08T07:48:55.845Z,18.60
2023-03-08T07:49:51.314Z,17.70
2023-03-08T07:50:47.317Z,19.40
2023-03-08T07:51:42.652Z,16.90
2023-03-08T07:52:38.086Z,19.20
2023-03-08T07:53:33.826Z,24.90
2023-03-08T07:54:29.261Z,23.80
2023-03-08T07:55:25.276Z,15.40
2023-03-08T07:56:20.477Z,20.40
2023-03-08T07:57:15.929Z,22.40
2023-03-08T07:58:11.767Z,19.50
2023-03-08T07:59:07.111Z,18.70
2023-03-08T08:00:02.547Z,22.00
2023-03-08T08:00:58.860Z,19.90
2023-03-08T08:01:54.282Z,21.00
2023-03-08T08:02:50.161Z,21.40
2023-03-08T08:03:45.791Z,21.70
2023-03-08T08:04:41.136Z,19.80
2023-03-08T08:05:37.218Z,17.60
2023-03-08T08:06:32.435Z,20.50
2023-03-08T08:07:28.280Z,18.10
2023-03-08T08:08:23.632Z,20.00
2023-03-08T08:09:19.060Z,15.70
2023-03-08T08:10:14.968Z,15.20
2023-03-08T08:11:10.314Z,18.10
2023-03-08T08:12:05.755Z,22.90
2023-03-08T08:13:02.170Z,19.60
2023-03-08T08:13:57.433Z,26.90
2023-03-08T08:14:53.420Z,21.10
2023-03-08T08:15:48.943Z,14.70
2023-03-08T08:16:44.418Z,18.10
2023-03-08T08:17:40.174Z,19.50
2023-03-08T08:18:35.752Z,21.60
2023-03-08T08:19:31.456Z,15.60
2023-03-08T08:20:27.132Z,19.90
2023-03-08T08:21:22.165Z,18.20
2023-03-08T08:22:17.930Z,18.10
2023-03-08T08:23:13.373Z,16.80
2023-03-08T08:24:08.839Z,16.00
2023-03-08T08:25:05.291Z,15.70
2023-03-08T08:26:00.603Z,17.10
2023-03-08T08:26:56.428Z,19.60
2023-03-08T08:27:51.948Z,21.00
2023-03-08T08:28:47.345Z,23.60
2023-03-08T08:29:42.811Z,19.00
2023-03-08T08:30:38.701Z,24.00
2023-03-08T08:31:34.032Z,20.90
2023-03-08T08:32:29.357Z,20.80
2023-03-08T08:33:25.224Z,19.40
2023-03-08T08:34:20.663Z,18.70
2023-03-08T08:35:16.308Z,20.30
2023-03-08T08:36:12.447Z,16.70
2023-03-08T08:37:07.876Z,17.70
2023-03-08T08:38:03.605Z,21.40
2023-03-08T08:38:59.051Z,16.80
2023-03-08T08:39:54.782Z,16.20
2023-03-08T08:40:50.261Z,19.10
2023-03-08T08:41:45.702Z,17.60
2023-03-08T08:42:41.467Z,21.90
2023-03-08T08:43:36.917Z,26.10
2023-03-08T08:44:32.541Z,20.30
2023-03-08T08:45:28.316Z,19.70
2023-03-08T08:46:23.738Z,17.30
2023-03-08T08:47:19.168Z,20.70
2023-03-08T08:48:14.766Z,19.10
2023-03-08T08:49:10.375Z,22.80
2023-03-08T08:50:09.246Z,19.20
2023-03-08T08:51:04.411Z,19.50
2023-03-08T08:51:59.837Z,19.30
2023-03-08T08:52:55.584Z,20.90
2023-03-08T08:53:51.040Z,20.90
2023-03-08T08:54:46.887Z,18.30
2023-03-08T08:55:44.486Z,16.10
2023-03-08T08:56:37.253Z,18.70
2023-03-08T08:57:32.335Z,15.90
2023-03-08T08:58:27.369Z,18.20
2023-03-08T08:59:22.440Z,15.30
2023-03-08T09:00:17.479Z,17.50
2023-03-08T09:01:12.505Z,17.00
2023-03-08T09:02:07.591Z,19.20
2023-03-08T09:03:02.567Z,18.90
2023-03-08T09:03:57.608Z,21.10
2023-03-08T09:04:52.729Z,20.00
2023-03-08T09:07:17.811Z,21.70
2023-03-08T09:08:13.156Z,22.80
2023-03-08T09:09:08.609Z,17.10
2023-03-08T09:10:04.309Z,19.80
2023-03-08T09:10:59.652Z,20.60
2023-03-08T09:11:56.097Z,22.10
2023-03-08T09:12:50.604Z,14.40
2023-03-08T09:13:45.963Z,14.00
2023-03-08T09:14:41.324Z,14.40
2023-03-08T09:15:36.884Z,14.70
2023-03-08T09:16:32.353Z,17.20
2023-03-08T09:17:27.752Z,20.30
2023-03-08T09:18:23.206Z,15.60
2023-03-08T09:19:18.628Z,16.60
2023-03-08T09:20:14.399Z,17.40
2023-03-08T09:21:09.414Z,15.40
2023-03-08T09:22:04.849Z,15.50
2023-03-08T09:23:00.459Z,12.40
2023-03-08T09:23:55.930Z,15.00
2023-03-08T09:24:51.379Z,14.60
2023-03-08T09:25:47.033Z,12.10
2023-03-08T09:26:42.298Z,14.60
2023-03-08T09:27:37.582Z,11.90
2023-03-08T09:28:33.029Z,12.80
2023-03-08T09:29:28.503Z,12.10
2023-03-08T09:30:24.075Z,16.20
2023-03-08T09:31:19.507Z,14.50
2023-03-08T09:32:15.186Z,12.40
2023-03-08T09:33:10.907Z,12.10
2023-03-08T09:34:06.120Z,11.20
2023-03-08T09:35:01.899Z,11.40
2023-03-08T09:35:57.418Z,11.80
2023-03-08T09:36:52.779Z,12.00
2023-03-08T09:37:48.185Z,13.40
2023-03-08T09:38:43.725Z,10.10
2023-03-08T09:39:39.190Z,12.20
2023-03-08T09:40:34.640Z,14.70
2023-03-08T09:41:30.072Z,14.60
2023-03-08T09:42:25.548Z,12.10
2023-03-08T09:43:20.862Z,10.90
2023-03-08T09:44:16.578Z,10.20
2023-03-08T09:45:11.803Z,11.70
2023-03-08T09:46:07.376Z,10.80
2023-03-08T09:47:02.729Z,11.10
2023-03-08T09:47:58.250Z,12.10
2023-03-08T09:48:53.890Z,8.50
2023-03-08T09:49:49.290Z,10.50
2023-03-08T09:50:45.653Z,12.30
2023-03-08T09:51:40.483Z,9.40
2023-03-08T09:52:35.859Z,9.70
2023-03-08T09:53:31.116Z,7.60
2023-03-08T09:54:26.472Z,7.60
2023-03-08T09:55:22.121Z,11.50
2023-03-08T09:56:17.427Z,10.10
2023-03-08T09:57:12.884Z,9.00
2023-03-08T09:58:08.146Z,10.90
2023-03-08T09:59:03.590Z,9.90
2023-03-08T09:59:59.265Z,8.70
2023-03-08T10:00:54.436Z,12.00
2023-03-08T10:01:49.864Z,7.90
2023-03-08T10:02:45.473Z,7.70
2023-03-08T10:03:40.770Z,12.10
2023-03-08T10:04:36.722Z,13.30
2023-03-08T10:05:31.563Z,8.60
2023-03-08T10:06:26.919Z,11.70
2023-03-08T10:07:22.515Z,8.50
2023-03-08T10:08:19.690Z,8.90
2023-03-08T10:09:15.191Z,9.10
2023-03-08T10:10:10.446Z,4.00
2023-03-08T10:11:05.869Z,6.80
2023-03-08T10:12:01.364Z,9.10
2023-03-08T10:12:56.861Z,5.80
2023-03-08T10:13:52.097Z,5.20
2023-03-08T10:14:47.451Z,5.80
2023-03-08T10:15:42.831Z,5.20
2023-03-08T10:16:38.013Z,6.10
2023-03-08T10:17:33.524Z,9.90
2023-03-08T10:18:28.945Z,5.60
2023-03-08T10:19:24.220Z,8.00
2023-03-08T10:20:19.913Z,6.40
2023-03-08T10:21:14.997Z,7.70
2023-03-08T10:22:10.531Z,5.50
2023-03-08T10:23:05.958Z,4.90
2023-03-08T10:24:01.524Z,6.40
2023-03-08T10:24:56.809Z,9.70
2023-03-08T10:25:52.211Z,7.10
2023-03-08T10:26:47.629Z,9.30
2023-03-08T10:27:43.015Z,6.80
2023-03-08T10:28:38.589Z,6.60
2023-03-08T10:29:33.843Z,4.90
2023-03-08T10:30:29.454Z,10.20
2023-03-08T10:31:29.329Z,4.00
2023-03-08T10:32:24.322Z,5.30
2023-03-08T10:33:19.677Z,7.30
2023-03-08T10:34:15.079Z,9.60
2023-03-08T10:35:10.416Z,5.50
2023-03-08T10:36:05.862Z,7.80
2023-03-08T10:37:01.243Z,7.10
2023-03-08T10:37:56.598Z,6.60
2023-03-08T10:38:52.153Z,7.30
2023-03-08T10:39:47.432Z,6.80
2023-03-08T10:40:42.455Z,5.40
2023-03-08T10:41:37.620Z,4.50
2023-03-08T10:42:32.585Z,6.30
2023-03-08T10:43:27.729Z,5.50
2023-03-08T10:44:23.049Z,4.90
2023-03-08T10:45:17.856Z,4.60
2023-03-08T10:46:12.993Z,8.10
2023-03-08T10:47:08.087Z,4.90
2023-03-08T10:48:03.177Z,4.90
2023-03-08T10:48:58.492Z,4.50
2023-03-08T10:49:53.282Z,6.70
2023-03-08T10:50:48.520Z,4.70
2023-03-08T10:51:43.635Z,7.00
2023-03-08T10:52:38.682Z,5.20
2023-03-08T10:53:33.682Z,4.60
2023-03-08T10:54:29.041Z,6.90
2023-03-08T10:55:24.502Z,6.50
2023-03-08T10:56:19.794Z,4.10
2023-03-08T10:57:15.113Z,6.20
2023-03-08T10:58:10.201Z,4.20
2023-03-08T10:59:05.881Z,3.40
2023-03-08T11:00:00.435Z,6.50
2023-03-08T11:00:55.528Z,7.70
2023-03-08T11:01:50.597Z,4.70
2023-03-08T11:02:45.971Z,4.00
2023-03-08T11:03:40.881Z,5.70
2023-03-08T11:04:35.723Z,4.10
2023-03-08T11:05:30.703Z,5.00
2023-03-08T11:06:26.137Z,3.80
2023-03-08T11:07:20.998Z,4.70
2023-03-08T11:08:15.944Z,4.80
2023-03-08T11:09:11.026Z,3.60
2023-03-08T11:10:06.114Z,9.00
2023-03-08T11:11:01.853Z,7.10
2023-03-08T11:11:56.922Z,4.50
2023-03-08T11:12:54.959Z,3.70
2023-03-08T11:13:49.915Z,4.90
2023-03-08T11:14:45.022Z,3.40
2023-03-08T11:15:40.026Z,3.10
2023-03-08T11:16:35.152Z,2.80
2023-03-08T11:17:30.223Z,3.20
2023-03-08T11:18:25.371Z,3.90
2023-03-08T11:19:20.675Z,4.00
2023-03-08T11:20:15.652Z,5.50
2023-03-08T11:21:10.633Z,4.60
2023-03-08T11:22:05.755Z,5.90
2023-03-08T11:23:00.774Z,2.30
2023-03-08T11:23:55.908Z,4.90
2023-03-08T11:24:50.995Z,9.70
2023-03-08T11:25:46.035Z,4.00
2023-03-08T11:26:41.451Z,3.30
2023-03-08T11:27:36.844Z,2.30
2023-03-08T11:28:32.058Z,2.80
2023-03-08T11:29:27.480Z,3.00
2023-03-08T11:30:22.902Z,7.90
2023-03-08T11:31:18.053Z,3.70
2023-03-08T11:32:13.042Z,4.20
2023-03-08T11:33:08.227Z,6.20
2023-03-08T11:34:06.889Z,3.70
2023-03-08T11:35:02.005Z,2.50
2023-03-08T11:35:57.094Z,4.00
2023-03-08T11:36:52.108Z,2.80
2023-03-08T11:37:47.145Z,2.80
2023-03-08T11:38:42.312Z,1.80
2023-03-08T11:39:37.380Z,4.70
2023-03-08T11:40:32.578Z,2.90
2023-03-08T11:41:27.458Z,3.00
2023-03-08T11:42:22.700Z,3.20
2023-03-08T11:43:17.672Z,1.90
2023-03-08T11:44:12.795Z,2.50
2023-03-08T11:45:07.797Z,6.90
2023-03-08T11:46:02.817Z,1.80
2023-03-08T11:46:57.968Z,2.10
2023-03-08T11:47:53.121Z,2.10
2023-03-08T11:48:48.683Z,3.30
2023-03-08T11:49:44.008Z,4.80
2023-03-08T11:50:39.373Z,1.90
2023-03-08T11:51:34.910Z,6.00
2023-03-08T11:52:30.393Z,5.90
2023-03-08T11:53:25.830Z,2.60
2023-03-08T11:54:21.265Z,4.40
2023-03-08T11:55:16.953Z,2.20
2023-03-08T11:56:12.159Z,4.00
2023-03-08T11:57:07.516Z,2.00
2023-03-08T11:58:03.023Z,2.50
2023-03-08T11:58:58.397Z,2.40
2023-03-08T11:59:53.756Z,1.20
2023-03-08T12:00:48.762Z,4.90
2023-03-08T12:01:43.723Z,4.90
2023-03-08T12:02:39.006Z,2.70